sensor_id;sensor_type;location;lat;lon;timestamp;P1;durP1;ratioP1;P2;durP2;ratioP2
18378;SDS011;27025;51.986;5.984;2023-02-01T00:00:17;25.08;;;6.25;;
18378;SDS011;27025;51.986;5.984;2023-02-01T00:02:44;27.40;;;6.15;;
18378;SDS011;27025;51.986;5.984;2023-02-01T00:05:15;24.10;;;6.50;;
18378;SDS011;27025;51.986;5.984;2023-02-01T00:07:42;28.02;;;6.20;;
18378;SDS011;27025;51.986;5.984;2023-02-01T00:19:18;22.52;;;5.88;;
18378;SDS011;27025;51.986;5.984;2023-02-01T00:21:44;23.23;;;6.10;;
18378;SDS011;27025;51.986;5.984;2023-02-01T00:24:10;26.23;;;5.73;;
18378;SDS011;27025;51.986;5.984;2023-02-01T00:26:41;21.73;;;5.88;;
18378;SDS011;27025;51.986;5.984;2023-02-01T00:42:23;20.90;;;5.45;;
18378;SDS011;27025;51.986;5.984;2023-02-01T00:52:45;20.20;;;5.30;;
18378;SDS011;27025;51.986;5.984;2023-02-01T00:55:11;17.03;;;5.17;;
18378;SDS011;27025;51.986;5.984;2023-02-01T00:57:37;19.65;;;5.13;;
18378;SDS011;27025;51.986;5.984;2023-02-01T01:00:03;21.00;;;5.18;;
18378;SDS011;27025;51.986;5.984;2023-02-01T01:02:29;21.48;;;5.35;;
18378;SDS011;27025;51.986;5.984;2023-02-01T01:04:55;25.15;;;6.07;;
18378;SDS011;27025;51.986;5.984;2023-02-01T01:07:21;22.90;;;5.10;;
18378;SDS011;27025;51.986;5.984;2023-02-01T01:09:47;22.27;;;5.40;;
18378;SDS011;27025;51.986;5.984;2023-02-01T01:12:13;18.35;;;5.13;;
18378;SDS011;27025;51.986;5.984;2023-02-01T01:14:39;20.08;;;5.18;;
18378;SDS011;27025;51.986;5.984;2023-02-01T01:17:05;25.60;;;5.50;;
18378;SDS011;27025;51.986;5.984;2023-02-01T01:19:31;25.10;;;5.50;;
18378;SDS011;27025;51.986;5.984;2023-02-01T01:21:57;24.85;;;5.80;;
18378;SDS011;27025;51.986;5.984;2023-02-01T01:24:23;25.13;;;5.43;;
18378;SDS011;27025;51.986;5.984;2023-02-01T01:26:49;19.10;;;5.20;;
18378;SDS011;27025;51.986;5.984;2023-02-01T01:29:15;23.20;;;5.47;;
18378;SDS011;27025;51.986;5.984;2023-02-01T01:31:41;23.95;;;5.57;;
18378;SDS011;27025;51.986;5.984;2023-02-01T01:34:07;20.93;;;5.30;;
18378;SDS011;27025;51.986;5.984;2023-02-01T01:36:33;23.75;;;5.75;;
18378;SDS011;27025;51.986;5.984;2023-02-01T01:38:59;21.88;;;5.40;;
18378;SDS011;27025;51.986;5.984;2023-02-01T01:41:27;21.25;;;5.65;;
18378;SDS011;27025;51.986;5.984;2023-02-01T01:43:58;22.83;;;5.60;;
18378;SDS011;27025;51.986;5.984;2023-02-01T01:46:26;26.25;;;5.70;;
18378;SDS011;27025;51.986;5.984;2023-02-01T01:48:53;24.67;;;5.80;;
18378;SDS011;27025;51.986;5.984;2023-02-01T01:51:22;27.33;;;5.90;;
18378;SDS011;27025;51.986;5.984;2023-02-01T01:54:00;25.98;;;5.70;;
18378;SDS011;27025;51.986;5.984;2023-02-01T01:56:27;27.30;;;5.88;;
18378;SDS011;27025;51.986;5.984;2023-02-01T02:08:44;25.17;;;5.80;;
18378;SDS011;27025;51.986;5.984;2023-02-01T02:11:10;24.92;;;6.15;;
18378;SDS011;27025;51.986;5.984;2023-02-01T02:13:38;25.58;;;5.60;;
18378;SDS011;27025;51.986;5.984;2023-02-01T02:21:27;23.70;;;5.68;;
18378;SDS011;27025;51.986;5.984;2023-02-01T02:34:22;21.92;;;5.55;;
18378;SDS011;27025;51.986;5.984;2023-02-01T02:37:04;26.00;;;5.90;;
18378;SDS011;27025;51.986;5.984;2023-02-01T02:45:21;22.75;;;5.35;;
18378;SDS011;27025;51.986;5.984;2023-02-01T02:53:55;26.02;;;5.97;;
18378;SDS011;27025;51.986;5.984;2023-02-01T02:56:41;21.73;;;5.85;;
18378;SDS011;27025;51.986;5.984;2023-02-01T02:59:26;23.58;;;6.20;;
18378;SDS011;27025;51.986;5.984;2023-02-01T03:02:12;20.92;;;5.57;;
18378;SDS011;27025;51.986;5.984;2023-02-01T03:04:57;25.38;;;5.90;;
18378;SDS011;27025;51.986;5.984;2023-02-01T03:10:10;29.63;;;6.28;;
18378;SDS011;27025;51.986;5.984;2023-02-01T03:12:39;25.05;;;6.05;;
18378;SDS011;27025;51.986;5.984;2023-02-01T03:15:25;30.08;;;6.18;;
18378;SDS011;27025;51.986;5.984;2023-02-01T03:17:52;25.60;;;6.15;;
18378;SDS011;27025;51.986;5.984;2023-02-01T03:20:21;26.07;;;6.03;;
18378;SDS011;27025;51.986;5.984;2023-02-01T03:22:48;22.38;;;5.63;;
18378;SDS011;27025;51.986;5.984;2023-02-01T03:25:17;20.58;;;5.55;;
18378;SDS011;27025;51.986;5.984;2023-02-01T03:27:49;23.87;;;5.37;;
18378;SDS011;27025;51.986;5.984;2023-02-01T03:30:21;23.38;;;5.55;;
18378;SDS011;27025;51.986;5.984;2023-02-01T03:32:49;26.77;;;6.18;;
18378;SDS011;27025;51.986;5.984;2023-02-01T03:40:45;28.77;;;5.90;;
18378;SDS011;27025;51.986;5.984;2023-02-01T03:43:13;28.50;;;6.25;;
18378;SDS011;27025;51.986;5.984;2023-02-01T03:45:43;26.40;;;6.05;;
18378;SDS011;27025;51.986;5.984;2023-02-01T03:48:10;26.17;;;5.80;;
18378;SDS011;27025;51.986;5.984;2023-02-01T03:50:39;26.65;;;5.80;;
18378;SDS011;27025;51.986;5.984;2023-02-01T03:53:10;26.77;;;5.93;;
18378;SDS011;27025;51.986;5.984;2023-02-01T03:55:38;28.00;;;5.97;;
18378;SDS011;27025;51.986;5.984;2023-02-01T04:00:30;27.08;;;6.10;;
18378;SDS011;27025;51.986;5.984;2023-02-01T04:02:56;25.50;;;6.18;;
18378;SDS011;27025;51.986;5.984;2023-02-01T04:05:22;25.00;;;6.20;;
18378;SDS011;27025;51.986;5.984;2023-02-01T04:07:48;24.85;;;5.88;;
18378;SDS011;27025;51.986;5.984;2023-02-01T04:10:14;25.38;;;6.20;;
18378;SDS011;27025;51.986;5.984;2023-02-01T04:12:40;24.65;;;6.00;;
18378;SDS011;27025;51.986;5.984;2023-02-01T04:15:07;30.00;;;6.30;;
18378;SDS011;27025;51.986;5.984;2023-02-01T04:17:33;24.00;;;6.45;;
18378;SDS011;27025;51.986;5.984;2023-02-01T04:19:59;24.80;;;5.88;;
18378;SDS011;27025;51.986;5.984;2023-02-01T04:22:25;29.80;;;6.60;;
18378;SDS011;27025;51.986;5.984;2023-02-01T04:24:51;26.92;;;6.35;;
18378;SDS011;27025;51.986;5.984;2023-02-01T04:27:17;27.00;;;6.32;;
18378;SDS011;27025;51.986;5.984;2023-02-01T04:29:43;25.93;;;6.63;;
18378;SDS011;27025;51.986;5.984;2023-02-01T04:32:10;29.40;;;6.82;;
18378;SDS011;27025;51.986;5.984;2023-02-01T04:34:36;26.95;;;6.18;;
18378;SDS011;27025;51.986;5.984;2023-02-01T04:37:02;29.00;;;6.53;;
18378;SDS011;27025;51.986;5.984;2023-02-01T04:39:28;28.45;;;6.38;;
18378;SDS011;27025;51.986;5.984;2023-02-01T04:41:54;28.75;;;6.60;;
18378;SDS011;27025;51.986;5.984;2023-02-01T04:44:20;28.17;;;5.95;;
18378;SDS011;27025;51.986;5.984;2023-02-01T04:46:46;27.67;;;6.03;;
18378;SDS011;27025;51.986;5.984;2023-02-01T04:49:13;32.23;;;6.57;;
18378;SDS011;27025;51.986;5.984;2023-02-01T04:51:39;25.02;;;6.13;;
18378;SDS011;27025;51.986;5.984;2023-02-01T04:54:06;27.13;;;6.25;;
18378;SDS011;27025;51.986;5.984;2023-02-01T04:56:32;29.47;;;6.37;;
18378;SDS011;27025;51.986;5.984;2023-02-01T04:59:00;25.17;;;6.00;;
18378;SDS011;27025;51.986;5.984;2023-02-01T05:01:27;32.47;;;6.30;;
18378;SDS011;27025;51.986;5.984;2023-02-01T05:03:53;24.80;;;6.28;;
18378;SDS011;27025;51.986;5.984;2023-02-01T05:06:19;27.17;;;5.90;;
18378;SDS011;27025;51.986;5.984;2023-02-01T05:08:45;28.02;;;6.45;;
18378;SDS011;27025;51.986;5.984;2023-02-01T05:11:11;31.35;;;6.93;;
18378;SDS011;27025;51.986;5.984;2023-02-01T05:13:56;27.38;;;6.32;;
18378;SDS011;27025;51.986;5.984;2023-02-01T05:16:22;25.63;;;5.97;;
18378;SDS011;27025;51.986;5.984;2023-02-01T05:18:48;23.35;;;5.90;;
18378;SDS011;27025;51.986;5.984;2023-02-01T05:21:14;24.92;;;6.10;;
18378;SDS011;27025;51.986;5.984;2023-02-01T05:23:40;26.00;;;6.07;;
18378;SDS011;27025;51.986;5.984;2023-02-01T05:26:28;28.35;;;6.20;;
18378;SDS011;27025;51.986;5.984;2023-02-01T05:28:54;23.80;;;5.68;;
18378;SDS011;27025;51.986;5.984;2023-02-01T05:31:21;19.15;;;5.70;;
18378;SDS011;27025;51.986;5.984;2023-02-01T05:33:47;24.63;;;5.97;;
18378;SDS011;27025;51.986;5.984;2023-02-01T05:36:13;22.13;;;5.88;;
18378;SDS011;27025;51.986;5.984;2023-02-01T05:38:39;23.73;;;6.20;;
18378;SDS011;27025;51.986;5.984;2023-02-01T05:41:05;21.20;;;5.72;;
18378;SDS011;27025;51.986;5.984;2023-02-01T05:43:31;26.27;;;6.07;;
18378;SDS011;27025;51.986;5.984;2023-02-01T05:45:58;27.52;;;6.22;;
18378;SDS011;27025;51.986;5.984;2023-02-01T05:48:24;28.27;;;6.40;;
18378;SDS011;27025;51.986;5.984;2023-02-01T05:50:50;24.10;;;6.10;;
18378;SDS011;27025;51.986;5.984;2023-02-01T05:53:16;24.60;;;5.70;;
18378;SDS011;27025;51.986;5.984;2023-02-01T05:55:42;23.17;;;5.70;;
18378;SDS011;27025;51.986;5.984;2023-02-01T05:58:08;24.83;;;6.45;;
18378;SDS011;27025;51.986;5.984;2023-02-01T06:00:35;23.75;;;5.65;;
18378;SDS011;27025;51.986;5.984;2023-02-01T06:03:01;27.50;;;6.13;;
18378;SDS011;27025;51.986;5.984;2023-02-01T06:05:27;23.00;;;5.70;;
18378;SDS011;27025;51.986;5.984;2023-02-01T06:07:53;23.80;;;6.05;;
18378;SDS011;27025;51.986;5.984;2023-02-01T06:10:19;25.50;;;6.30;;
18378;SDS011;27025;51.986;5.984;2023-02-01T06:12:45;22.95;;;5.93;;
18378;SDS011;27025;51.986;5.984;2023-02-01T06:15:12;28.35;;;7.38;;
18378;SDS011;27025;51.986;5.984;2023-02-01T06:17:38;22.17;;;5.50;;
18378;SDS011;27025;51.986;5.984;2023-02-01T06:20:06;23.40;;;5.97;;
18378;SDS011;27025;51.986;5.984;2023-02-01T06:22:32;23.92;;;6.20;;
18378;SDS011;27025;51.986;5.984;2023-02-01T06:25:00;23.35;;;5.60;;
18378;SDS011;27025;51.986;5.984;2023-02-01T06:27:26;22.20;;;5.57;;
18378;SDS011;27025;51.986;5.984;2023-02-01T06:29:53;22.08;;;5.78;;
18378;SDS011;27025;51.986;5.984;2023-02-01T06:32:20;24.90;;;5.80;;
18378;SDS011;27025;51.986;5.984;2023-02-01T06:34:46;21.48;;;5.22;;
18378;SDS011;27025;51.986;5.984;2023-02-01T06:37:12;22.53;;;5.87;;
18378;SDS011;27025;51.986;5.984;2023-02-01T06:39:38;24.20;;;6.15;;
18378;SDS011;27025;51.986;5.984;2023-02-01T06:42:04;21.05;;;5.55;;
18378;SDS011;27025;51.986;5.984;2023-02-01T06:44:30;25.45;;;7.55;;
18378;SDS011;27025;51.986;5.984;2023-02-01T06:46:56;24.40;;;5.77;;
18378;SDS011;27025;51.986;5.984;2023-02-01T06:49:22;21.48;;;5.93;;
18378;SDS011;27025;51.986;5.984;2023-02-01T06:51:48;22.40;;;5.80;;
18378;SDS011;27025;51.986;5.984;2023-02-01T06:54:14;21.38;;;5.53;;
18378;SDS011;27025;51.986;5.984;2023-02-01T06:56:40;22.98;;;5.93;;
18378;SDS011;27025;51.986;5.984;2023-02-01T06:59:07;20.13;;;5.60;;
18378;SDS011;27025;51.986;5.984;2023-02-01T07:01:33;21.65;;;5.45;;
18378;SDS011;27025;51.986;5.984;2023-02-01T07:04:00;24.52;;;5.93;;
18378;SDS011;27025;51.986;5.984;2023-02-01T07:06:26;24.38;;;6.03;;
18378;SDS011;27025;51.986;5.984;2023-02-01T07:08:52;21.85;;;5.88;;
18378;SDS011;27025;51.986;5.984;2023-02-01T07:11:20;23.45;;;5.95;;
18378;SDS011;27025;51.986;5.984;2023-02-01T07:13:47;19.17;;;5.30;;
18378;SDS011;27025;51.986;5.984;2023-02-01T07:16:20;26.20;;;6.20;;
18378;SDS011;27025;51.986;5.984;2023-02-01T07:18:46;30.23;;;5.90;;
18378;SDS011;27025;51.986;5.984;2023-02-01T07:21:13;24.77;;;6.10;;
18378;SDS011;27025;51.986;5.984;2023-02-01T07:23:39;24.88;;;6.22;;
18378;SDS011;27025;51.986;5.984;2023-02-01T07:26:06;23.20;;;5.95;;
18378;SDS011;27025;51.986;5.984;2023-02-01T07:28:33;22.60;;;5.75;;
18378;SDS011;27025;51.986;5.984;2023-02-01T07:31:12;23.45;;;5.97;;
18378;SDS011;27025;51.986;5.984;2023-02-01T07:33:41;23.50;;;7.15;;
18378;SDS011;27025;51.986;5.984;2023-02-01T07:36:08;31.33;;;11.73;;
18378;SDS011;27025;51.986;5.984;2023-02-01T07:38:36;23.88;;;9.55;;
18378;SDS011;27025;51.986;5.984;2023-02-01T07:41:02;25.67;;;8.48;;
18378;SDS011;27025;51.986;5.984;2023-02-01T07:43:29;22.88;;;7.00;;
18378;SDS011;27025;51.986;5.984;2023-02-01T07:45:55;25.98;;;6.10;;
18378;SDS011;27025;51.986;5.984;2023-02-01T07:48:21;22.58;;;6.00;;
18378;SDS011;27025;51.986;5.984;2023-02-01T07:50:48;22.42;;;5.85;;
18378;SDS011;27025;51.986;5.984;2023-02-01T07:53:14;26.33;;;6.05;;
18378;SDS011;27025;51.986;5.984;2023-02-01T07:55:40;24.10;;;5.90;;
18378;SDS011;27025;51.986;5.984;2023-02-01T07:58:06;22.40;;;6.00;;
18378;SDS011;27025;51.986;5.984;2023-02-01T08:00:32;21.20;;;5.47;;
18378;SDS011;27025;51.986;5.984;2023-02-01T08:03:17;22.27;;;5.45;;
18378;SDS011;27025;51.986;5.984;2023-02-01T08:05:43;22.50;;;5.80;;
18378;SDS011;27025;51.986;5.984;2023-02-01T08:08:09;22.98;;;5.80;;
18378;SDS011;27025;51.986;5.984;2023-02-01T08:10:35;22.95;;;6.00;;
18378;SDS011;27025;51.986;5.984;2023-02-01T08:13:02;23.00;;;5.68;;
18378;SDS011;27025;51.986;5.984;2023-02-01T08:15:28;25.30;;;6.10;;
18378;SDS011;27025;51.986;5.984;2023-02-01T08:17:54;24.15;;;5.80;;
18378;SDS011;27025;51.986;5.984;2023-02-01T08:20:21;21.13;;;5.80;;
18378;SDS011;27025;51.986;5.984;2023-02-01T08:22:48;24.60;;;5.85;;
18378;SDS011;27025;51.986;5.984;2023-02-01T08:25:14;24.85;;;5.65;;
18378;SDS011;27025;51.986;5.984;2023-02-01T08:27:40;22.67;;;5.88;;
18378;SDS011;27025;51.986;5.984;2023-02-01T08:30:06;24.60;;;5.57;;
18378;SDS011;27025;51.986;5.984;2023-02-01T08:32:33;22.55;;;5.97;;
18378;SDS011;27025;51.986;5.984;2023-02-01T08:34:59;22.67;;;5.97;;
18378;SDS011;27025;51.986;5.984;2023-02-01T08:37:25;20.63;;;5.45;;
18378;SDS011;27025;51.986;5.984;2023-02-01T08:39:51;21.08;;;5.53;;
18378;SDS011;27025;51.986;5.984;2023-02-01T08:42:17;24.25;;;5.55;;
18378;SDS011;27025;51.986;5.984;2023-02-01T08:45:02;22.80;;;5.65;;
18378;SDS011;27025;51.986;5.984;2023-02-01T08:47:29;22.65;;;5.50;;
18378;SDS011;27025;51.986;5.984;2023-02-01T08:49:55;24.92;;;5.95;;
18378;SDS011;27025;51.986;5.984;2023-02-01T08:52:22;19.67;;;5.38;;
18378;SDS011;27025;51.986;5.984;2023-02-01T08:54:48;21.52;;;5.20;;
18378;SDS011;27025;51.986;5.984;2023-02-01T08:57:14;19.33;;;4.97;;
18378;SDS011;27025;51.986;5.984;2023-02-01T08:59:40;20.63;;;5.57;;
18378;SDS011;27025;51.986;5.984;2023-02-01T09:02:11;19.33;;;5.80;;
18378;SDS011;27025;51.986;5.984;2023-02-01T09:04:38;17.08;;;4.95;;
18378;SDS011;27025;51.986;5.984;2023-02-01T09:07:04;22.50;;;7.78;;
18378;SDS011;27025;51.986;5.984;2023-02-01T09:09:30;23.80;;;9.32;;
18378;SDS011;27025;51.986;5.984;2023-02-01T09:11:56;16.50;;;5.03;;
18378;SDS011;27025;51.986;5.984;2023-02-01T09:14:22;15.48;;;5.35;;
18378;SDS011;27025;51.986;5.984;2023-02-01T09:16:48;17.50;;;5.43;;
18378;SDS011;27025;51.986;5.984;2023-02-01T09:19:14;19.55;;;5.13;;
18378;SDS011;27025;51.986;5.984;2023-02-01T09:21:40;21.47;;;4.70;;
18378;SDS011;27025;51.986;5.984;2023-02-01T09:24:06;16.83;;;4.83;;
18378;SDS011;27025;51.986;5.984;2023-02-01T09:26:32;16.92;;;4.80;;
18378;SDS011;27025;51.986;5.984;2023-02-01T09:28:59;18.75;;;4.88;;
18378;SDS011;27025;51.986;5.984;2023-02-01T09:31:25;19.55;;;4.95;;
18378;SDS011;27025;51.986;5.984;2023-02-01T09:33:51;20.90;;;5.13;;
18378;SDS011;27025;51.986;5.984;2023-02-01T09:36:17;19.70;;;4.40;;
18378;SDS011;27025;51.986;5.984;2023-02-01T09:38:44;16.73;;;4.80;;
18378;SDS011;27025;51.986;5.984;2023-02-01T09:41:21;19.60;;;5.05;;
18378;SDS011;27025;51.986;5.984;2023-02-01T09:46:24;17.40;;;5.28;;
18378;SDS011;27025;51.986;5.984;2023-02-01T09:48:55;22.77;;;5.55;;
18378;SDS011;27025;51.986;5.984;2023-02-01T09:51:25;16.88;;;5.22;;
18378;SDS011;27025;51.986;5.984;2023-02-01T09:54:13;20.25;;;5.47;;
18378;SDS011;27025;51.986;5.984;2023-02-01T09:56:41;21.52;;;5.47;;
18378;SDS011;27025;51.986;5.984;2023-02-01T10:01:46;21.45;;;5.50;;
18378;SDS011;27025;51.986;5.984;2023-02-01T10:04:13;23.17;;;5.53;;
18378;SDS011;27025;51.986;5.984;2023-02-01T10:27:34;24.63;;;5.80;;
18378;SDS011;27025;51.986;5.984;2023-02-01T10:30:06;21.30;;;5.70;;
18378;SDS011;27025;51.986;5.984;2023-02-01T10:32:35;22.95;;;5.78;;
18378;SDS011;27025;51.986;5.984;2023-02-01T10:35:24;21.13;;;4.87;;
18378;SDS011;27025;51.986;5.984;2023-02-01T10:37:48;22.33;;;4.77;;
18378;SDS011;27025;51.986;5.984;2023-02-01T10:40:22;23.67;;;5.10;;
18378;SDS011;27025;51.986;5.984;2023-02-01T10:42:49;16.93;;;5.13;;
18378;SDS011;27025;51.986;5.984;2023-02-01T10:45:20;20.90;;;5.07;;
18378;SDS011;27025;51.986;5.984;2023-02-01T10:47:48;22.73;;;5.47;;
18378;SDS011;27025;51.986;5.984;2023-02-01T10:55:26;17.50;;;4.80;;
18378;SDS011;27025;51.986;5.984;2023-02-01T10:57:56;25.33;;;5.50;;
18378;SDS011;27025;51.986;5.984;2023-02-01T11:00:23;25.70;;;5.47;;
18378;SDS011;27025;51.986;5.984;2023-02-01T11:02:49;19.53;;;4.80;;
18378;SDS011;27025;51.986;5.984;2023-02-01T11:05:16;18.00;;;5.20;;
18378;SDS011;27025;51.986;5.984;2023-02-01T11:07:50;18.43;;;4.73;;
18378;SDS011;27025;51.986;5.984;2023-02-01T11:13:04;25.70;;;5.80;;
18378;SDS011;27025;51.986;5.984;2023-02-01T11:15:30;23.40;;;4.83;;
18378;SDS011;27025;51.986;5.984;2023-02-01T11:17:56;27.43;;;11.03;;
18378;SDS011;27025;51.986;5.984;2023-02-01T11:20:39;20.93;;;4.90;;
18378;SDS011;27025;51.986;5.984;2023-02-01T11:23:11;21.40;;;5.43;;
18378;SDS011;27025;51.986;5.984;2023-02-01T11:25:40;22.27;;;5.77;;
18378;SDS011;27025;51.986;5.984;2023-02-01T11:28:13;28.70;;;6.13;;
18378;SDS011;27025;51.986;5.984;2023-02-01T11:30:41;21.73;;;5.40;;
18378;SDS011;27025;51.986;5.984;2023-02-01T11:33:12;24.17;;;5.87;;
18378;SDS011;27025;51.986;5.984;2023-02-01T11:35:39;18.90;;;4.63;;
18378;SDS011;27025;51.986;5.984;2023-02-01T11:40:44;21.97;;;4.50;;
18378;SDS011;27025;51.986;5.984;2023-02-01T11:45:39;18.33;;;4.70;;
18378;SDS011;27025;51.986;5.984;2023-02-01T11:48:09;20.23;;;4.83;;
18378;SDS011;27025;51.986;5.984;2023-02-01T11:50:42;21.30;;;4.63;;
18378;SDS011;27025;51.986;5.984;2023-02-01T12:06:22;25.93;;;4.90;;
18378;SDS011;27025;51.986;5.984;2023-02-01T12:11:23;18.90;;;4.50;;
18378;SDS011;27025;51.986;5.984;2023-02-01T12:16:31;17.33;;;4.77;;
18378;SDS011;27025;51.986;5.984;2023-02-01T12:24:38;19.47;;;4.40;;
18378;SDS011;27025;51.986;5.984;2023-02-01T12:27:16;19.00;;;4.80;;
18378;SDS011;27025;51.986;5.984;2023-02-01T12:29:55;18.07;;;4.50;;
18378;SDS011;27025;51.986;5.984;2023-02-01T12:35:14;19.90;;;5.23;;
18378;SDS011;27025;51.986;5.984;2023-02-01T12:48:22;23.33;;;4.67;;
18378;SDS011;27025;51.986;5.984;2023-02-01T12:50:50;21.60;;;4.57;;
18378;SDS011;27025;51.986;5.984;2023-02-01T12:53:32;22.23;;;4.27;;
18378;SDS011;27025;51.986;5.984;2023-02-01T12:56:02;20.00;;;4.60;;
18378;SDS011;27025;51.986;5.984;2023-02-01T12:58:32;16.57;;;4.03;;
18378;SDS011;27025;51.986;5.984;2023-02-01T13:01:02;16.80;;;4.27;;
18378;SDS011;27025;51.986;5.984;2023-02-01T13:03:37;21.00;;;4.27;;
18378;SDS011;27025;51.986;5.984;2023-02-01T13:06:12;22.30;;;4.43;;
18378;SDS011;27025;51.986;5.984;2023-02-01T13:08:51;21.98;;;5.57;;
18378;SDS011;27025;51.986;5.984;2023-02-01T13:11:24;18.00;;;4.40;;
18378;SDS011;27025;51.986;5.984;2023-02-01T13:14:53;19.47;;;4.80;;
18378;SDS011;27025;51.986;5.984;2023-02-01T13:16:48;19.83;;;4.40;;
18378;SDS011;27025;51.986;5.984;2023-02-01T13:19:20;16.40;;;4.50;;
18378;SDS011;27025;51.986;5.984;2023-02-01T13:21:50;23.13;;;5.40;;
18378;SDS011;27025;51.986;5.984;2023-02-01T13:24:33;25.80;;;5.43;;
18378;SDS011;27025;51.986;5.984;2023-02-01T13:27:01;20.98;;;5.13;;
18378;SDS011;27025;51.986;5.984;2023-02-01T13:29:28;23.88;;;5.45;;
18378;SDS011;27025;51.986;5.984;2023-02-01T13:32:04;19.30;;;4.33;;
18378;SDS011;27025;51.986;5.984;2023-02-01T13:37:03;22.30;;;5.05;;
18378;SDS011;27025;51.986;5.984;2023-02-01T13:39:46;21.77;;;4.97;;
18378;SDS011;27025;51.986;5.984;2023-02-01T13:42:15;22.17;;;5.35;;
18378;SDS011;27025;51.986;5.984;2023-02-01T13:44:44;23.15;;;5.10;;
18378;SDS011;27025;51.986;5.984;2023-02-01T13:49:57;17.75;;;4.20;;
18378;SDS011;27025;51.986;5.984;2023-02-01T13:52:26;20.55;;;5.38;;
18378;SDS011;27025;51.986;5.984;2023-02-01T13:55:03;19.70;;;5.03;;
18378;SDS011;27025;51.986;5.984;2023-02-01T13:57:40;19.93;;;5.07;;
18378;SDS011;27025;51.986;5.984;2023-02-01T14:00:22;19.53;;;5.00;;
18378;SDS011;27025;51.986;5.984;2023-02-01T14:08:02;20.73;;;5.00;;
18378;SDS011;27025;51.986;5.984;2023-02-01T14:23:47;20.80;;;5.03;;
18378;SDS011;27025;51.986;5.984;2023-02-01T14:26:17;19.38;;;4.93;;
18378;SDS011;27025;51.986;5.984;2023-02-01T14:29:18;19.63;;;4.75;;
18378;SDS011;27025;51.986;5.984;2023-02-01T14:31:34;17.88;;;4.75;;
18378;SDS011;27025;51.986;5.984;2023-02-01T14:34:02;22.00;;;4.80;;
18378;SDS011;27025;51.986;5.984;2023-02-01T14:36:47;18.65;;;4.80;;
18378;SDS011;27025;51.986;5.984;2023-02-01T14:39:22;20.43;;;4.97;;
18378;SDS011;27025;51.986;5.984;2023-02-01T14:41:51;23.05;;;5.20;;
18378;SDS011;27025;51.986;5.984;2023-02-01T14:44:22;18.58;;;4.68;;
18378;SDS011;27025;51.986;5.984;2023-02-01T14:49:29;20.08;;;4.93;;
18378;SDS011;27025;51.986;5.984;2023-02-01T14:51:56;20.73;;;5.15;;
18378;SDS011;27025;51.986;5.984;2023-02-01T14:54:22;17.88;;;4.72;;
18378;SDS011;27025;51.986;5.984;2023-02-01T14:56:48;20.23;;;5.28;;
18378;SDS011;27025;51.986;5.984;2023-02-01T14:59:16;18.10;;;4.78;;
18378;SDS011;27025;51.986;5.984;2023-02-01T15:01:48;18.87;;;4.73;;
18378;SDS011;27025;51.986;5.984;2023-02-01T15:04:16;21.05;;;4.60;;
18378;SDS011;27025;51.986;5.984;2023-02-01T15:06:56;22.08;;;5.20;;
18378;SDS011;27025;51.986;5.984;2023-02-01T15:09:27;16.85;;;4.80;;
18378;SDS011;27025;51.986;5.984;2023-02-01T15:14:28;21.73;;;5.15;;
18378;SDS011;27025;51.986;5.984;2023-02-01T15:16:54;18.87;;;4.67;;
18378;SDS011;27025;51.986;5.984;2023-02-01T15:19:21;19.77;;;5.18;;
18378;SDS011;27025;51.986;5.984;2023-02-01T15:21:49;18.17;;;4.63;;
18378;SDS011;27025;51.986;5.984;2023-02-01T15:24:22;20.52;;;4.72;;
18378;SDS011;27025;51.986;5.984;2023-02-01T15:26:49;21.20;;;4.88;;
18378;SDS011;27025;51.986;5.984;2023-02-01T15:29:17;18.30;;;4.60;;
18378;SDS011;27025;51.986;5.984;2023-02-01T15:31:48;19.37;;;4.60;;
18378;SDS011;27025;51.986;5.984;2023-02-01T15:34:14;18.27;;;5.87;;
18378;SDS011;27025;51.986;5.984;2023-02-01T15:36:41;20.73;;;4.50;;
18378;SDS011;27025;51.986;5.984;2023-02-01T15:39:12;17.77;;;3.20;;
18378;SDS011;27025;51.986;5.984;2023-02-01T15:41:45;9.60;;;3.17;;
18378;SDS011;27025;51.986;5.984;2023-02-01T15:44:20;8.83;;;2.40;;
18378;SDS011;27025;51.986;5.984;2023-02-01T15:46:48;8.20;;;2.40;;
18378;SDS011;27025;51.986;5.984;2023-02-01T15:51:45;8.13;;;2.57;;
18378;SDS011;27025;51.986;5.984;2023-02-01T15:54:13;7.13;;;2.80;;
18378;SDS011;27025;51.986;5.984;2023-02-01T15:56:44;7.83;;;2.57;;
18378;SDS011;27025;51.986;5.984;2023-02-01T15:59:16;10.10;;;2.50;;
18378;SDS011;27025;51.986;5.984;2023-02-01T16:01:42;9.43;;;3.10;;
18378;SDS011;27025;51.986;5.984;2023-02-01T16:06:38;9.10;;;3.57;;
18378;SDS011;27025;51.986;5.984;2023-02-01T16:09:11;12.70;;;3.40;;
18378;SDS011;27025;51.986;5.984;2023-02-01T16:11:41;9.93;;;3.17;;
18378;SDS011;27025;51.986;5.984;2023-02-01T16:14:12;15.23;;;4.03;;
18378;SDS011;27025;51.986;5.984;2023-02-01T16:16:38;20.40;;;5.43;;
18378;SDS011;27025;51.986;5.984;2023-02-01T16:19:04;15.17;;;5.40;;
18378;SDS011;27025;51.986;5.984;2023-02-01T16:21:30;23.87;;;9.37;;
18378;SDS011;27025;51.986;5.984;2023-02-01T16:23:56;21.93;;;7.90;;
18378;SDS011;27025;51.986;5.984;2023-02-01T16:26:22;17.13;;;5.87;;
18378;SDS011;27025;51.986;5.984;2023-02-01T16:28:48;19.70;;;4.43;;
18378;SDS011;27025;51.986;5.984;2023-02-01T16:31:18;15.33;;;4.70;;
18378;SDS011;27025;51.986;5.984;2023-02-01T16:33:48;18.00;;;5.10;;
18378;SDS011;27025;51.986;5.984;2023-02-01T16:36:14;18.77;;;4.60;;
18378;SDS011;27025;51.986;5.984;2023-02-01T16:38:41;19.47;;;5.77;;
18378;SDS011;27025;51.986;5.984;2023-02-01T16:41:10;26.20;;;5.77;;
18378;SDS011;27025;51.986;5.984;2023-02-01T16:43:37;19.47;;;6.10;;
18378;SDS011;27025;51.986;5.984;2023-02-01T16:46:03;22.77;;;5.87;;
18378;SDS011;27025;51.986;5.984;2023-02-01T16:48:30;25.63;;;6.20;;
18378;SDS011;27025;51.986;5.984;2023-02-01T16:50:58;28.37;;;7.60;;
18378;SDS011;27025;51.986;5.984;2023-02-01T16:53:25;21.07;;;5.43;;
18378;SDS011;27025;51.986;5.984;2023-02-01T16:55:52;23.57;;;5.23;;
18378;SDS011;27025;51.986;5.984;2023-02-01T16:58:19;19.13;;;4.60;;
18378;SDS011;27025;51.986;5.984;2023-02-01T17:00:46;23.43;;;4.93;;
18378;SDS011;27025;51.986;5.984;2023-02-01T17:03:13;27.07;;;7.20;;
18378;SDS011;27025;51.986;5.984;2023-02-01T17:05:41;24.87;;;7.90;;
18378;SDS011;27025;51.986;5.984;2023-02-01T17:08:09;25.10;;;10.23;;
18378;SDS011;27025;51.986;5.984;2023-02-01T17:10:37;18.60;;;5.63;;
18378;SDS011;27025;51.986;5.984;2023-02-01T17:13:03;21.00;;;6.20;;
18378;SDS011;27025;51.986;5.984;2023-02-01T17:15:31;23.20;;;5.83;;
18378;SDS011;27025;51.986;5.984;2023-02-01T17:17:59;23.13;;;5.43;;
18378;SDS011;27025;51.986;5.984;2023-02-01T17:20:26;22.53;;;5.20;;
18378;SDS011;27025;51.986;5.984;2023-02-01T17:22:55;19.67;;;4.13;;
18378;SDS011;27025;51.986;5.984;2023-02-01T17:25:21;10.87;;;2.90;;
18378;SDS011;27025;51.986;5.984;2023-02-01T17:27:47;15.00;;;4.03;;
18378;SDS011;27025;51.986;5.984;2023-02-01T17:30:14;11.25;;;3.20;;
18378;SDS011;27025;51.986;5.984;2023-02-01T17:32:40;7.23;;;3.20;;
18378;SDS011;27025;51.986;5.984;2023-02-01T17:35:15;12.23;;;3.90;;
18378;SDS011;27025;51.986;5.984;2023-02-01T17:37:43;12.10;;;3.70;;
18378;SDS011;27025;51.986;5.984;2023-02-01T17:40:09;14.07;;;3.73;;
18378;SDS011;27025;51.986;5.984;2023-02-01T17:42:35;14.90;;;3.90;;
18378;SDS011;27025;51.986;5.984;2023-02-01T17:45:11;17.23;;;4.00;;
18378;SDS011;27025;51.986;5.984;2023-02-01T17:47:40;18.07;;;4.27;;
18378;SDS011;27025;51.986;5.984;2023-02-01T17:50:06;16.47;;;4.27;;
18378;SDS011;27025;51.986;5.984;2023-02-01T17:52:32;16.83;;;4.53;;